Time;durP1;ratioP1;P1;durP2;ratioP2;P2;SDS_P1;SDS_P2;PMS_P1;PMS_P2;Temp;Humidity;BMP_temperature;BMP_pressure;BME280_temperature;BME280_humidity;BME280_pressure;Samples;Min_cycle;Max_cycle;Signal;HPM_P1;HPM_P2
2022/01/06 00:00:57;;;;;;;8.33;5.00;;;;;;;9.87;74.59;98149.16;5074288;28;20268;-68
2022/01/06 00:03:25;;;;;;;9.70;5.17;;;;;;;10.02;74.52;98147.88;5073990;28;20209;-68
2022/01/06 00:05:53;;;;;;;9.80;5.73;;;;;;;9.99;74.13;98155.78;5074294;28;20629;-59
2022/01/06 00:08:20;;;;;;;8.97;5.40;;;;;;;9.85;74.52;98161.25;5073849;28;20213;-59
2022/01/06 00:10:48;;;;;;;10.00;5.60;;;;;;;9.79;74.58;98157.47;5074009;28;20218;-59
2022/01/06 00:13:20;;;;;;;10.10;5.70;;;;;;;9.92;73.95;98158.06;5073654;28;20256;-59
2022/01/06 00:16:02;;;;;;;15.10;5.67;;;;;;;9.99;74.12;98155.78;5074070;28;20348;-68
2022/01/06 00:18:46;;;;;;;10.83;5.67;;;;;;;9.76;75.06;98162.81;5073854;28;20256;-68
2022/01/06 00:23:59;;;;;;;8.40;5.37;;;;;;;9.47;75.89;98165.25;5073727;28;20201;-59
2022/01/06 00:26:25;;;;;;;10.53;5.73;;;;;;;9.29;76.72;98170.91;5073727;28;20226;-68
2022/01/06 00:28:52;;;;;;;9.47;6.10;;;;;;;9.19;77.06;98167.53;5073585;28;20667;-60
2022/01/06 00:31:19;;;;;;;10.73;6.40;;;;;;;9.26;77.16;98171.16;5073224;28;20308;-68
2022/01/06 00:33:46;;;;;;;10.70;6.47;;;;;;;9.32;76.82;98174.16;5073414;28;20203;-68
2022/01/06 00:36:14;;;;;;;9.20;5.93;;;;;;;9.19;76.98;98169.22;5073325;28;20222;-59
2022/01/06 00:38:41;;;;;;;10.80;6.13;;;;;;;9.14;77.39;98173.91;5073376;28;20214;-59
2022/01/06 00:41:08;;;;;;;11.90;6.87;;;;;;;9.28;76.75;98176.97;5073589;28;20226;-68
2022/01/06 00:43:34;;;;;;;9.90;6.50;;;;;;;9.23;76.30;98176.53;5073639;28;20593;-59
2022/01/06 00:46:01;;;;;;;15.80;7.40;;;;;;;9.13;76.75;98175.63;5073256;28;20222;-59
2022/01/06 00:48:28;;;;;;;12.70;6.57;;;;;;;9.07;76.98;98182.06;5072381;28;20209;-60
2022/01/06 00:50:55;;;;;;;12.87;6.10;;;;;;;9.06;77.31;98190.63;5073041;28;20649;-67
2022/01/06 00:53:23;;;;;;;10.13;5.80;;;;;;;9.13;76.99;98193.50;5073105;28;20206;-59
2022/01/06 00:55:50;;;;;;;12.23;6.90;;;;;;;9.27;76.51;98190.63;5072976;28;20635;-68
2022/01/06 00:58:17;;;;;;;12.83;6.37;;;;;;;9.26;76.98;98201.78;5072795;28;20288;-59
2022/01/06 01:00:44;;;;;;;10.53;6.40;;;;;;;9.19;76.97;98185.38;5072914;28;20223;-63
2022/01/06 01:03:12;;;;;;;9.50;6.13;;;;;;;9.03;77.23;98185.78;5072780;28;20203;-68
2022/01/06 01:05:40;;;;;;;9.77;6.00;;;;;;;8.96;77.74;98183.84;5072677;28;20719;-68
2022/01/06 01:08:07;;;;;;;10.23;6.07;;;;;;;8.99;77.86;98186.16;5072898;28;20672;-59
2022/01/06 01:10:35;;;;;;;13.60;6.67;;;;;;;8.90;77.89;98186.88;5072943;28;20226;-60
2022/01/06 01:13:03;;;;;;;11.17;6.20;;;;;;;8.81;78.59;98189.25;5072648;28;20297;-59
2022/01/06 01:15:32;;;;;;;9.07;5.70;;;;;;;8.79;78.25;98186.00;5072905;28;20207;-59
2022/01/06 01:18:05;;;;;;;10.97;5.57;;;;;;;8.63;79.99;98198.31;5072438;28;20234;-59
2022/01/06 01:20:33;;;;;;;11.70;5.80;;;;;;;8.80;79.39;98195.25;5072729;28;20211;-59
2022/01/06 01:23:00;;;;;;;9.73;6.27;;;;;;;8.91;79.01;98188.50;5072656;28;20205;-59
2022/01/06 01:25:27;;;;;;;12.47;6.07;;;;;;;8.89;78.94;98192.91;5072508;28;20277;-59
2022/01/06 01:27:56;;;;;;;10.70;6.20;;;;;;;8.74;79.28;98185.56;5072670;28;20226;-66
2022/01/06 01:30:30;;;;;;;10.20;5.60;;;;;;;8.73;79.54;98183.94;5072660;28;20234;-59
2022/01/06 01:32:59;;;;;;;8.33;5.63;;;;;;;8.78;79.30;98183.56;5072492;28;20245;-68
2022/01/06 01:38:11;;;;;;;12.53;6.23;;;;;;;8.64;79.93;98179.59;5072159;28;20240;-69
2022/01/06 01:40:38;;;;;;;11.70;6.47;;;;;;;8.67;79.62;98178.50;5072328;28;20592;-59
2022/01/06 01:43:06;;;;;;;10.90;6.47;;;;;;;8.56;80.31;98176.81;5072108;28;20668;-68
2022/01/06 01:45:34;;;;;;;10.73;6.07;;;;;;;8.58;79.90;98180.03;5072019;28;20687;-68
2022/01/06 01:48:05;;;;;;;10.53;5.37;;;;;;;8.75;79.41;98173.63;5071993;28;20688;-67
2022/01/06 01:50:32;;;;;;;10.77;5.87;;;;;;;8.77;79.22;98175.13;5072195;28;20206;-59
2022/01/06 01:52:59;;;;;;;10.47;6.37;;;;;;;8.78;79.06;98178.47;5072014;28;20207;-60
2022/01/06 01:55:29;;;;;;;10.50;5.80;;;;;;;8.76;79.10;98178.59;5072118;28;20333;-68
2022/01/06 01:57:57;;;;;;;11.20;5.77;;;;;;;8.75;79.33;98174.41;5071736;28;20226;-59
2022/01/06 02:00:27;;;;;;;10.07;5.90;;;;;;;8.86;78.97;98178.66;5070952;28;20195;-65
2022/01/06 02:02:54;;;;;;;10.40;5.93;;;;;;;8.81;78.84;98176.50;5071887;28;20202;-59
2022/01/06 02:05:26;;;;;;;9.33;5.67;;;;;;;8.67;79.88;98174.25;5072212;28;20218;-68
2022/01/06 02:07:54;;;;;;;12.10;6.20;;;;;;;8.58;79.71;98175.78;5071774;28;20198;-59
2022/01/06 02:10:21;;;;;;;11.27;6.03;;;;;;;8.53;79.54;98180.41;5071563;28;20195;-68
2022/01/06 02:12:50;;;;;;;10.50;6.50;;;;;;;8.47;79.49;98187.72;5071517;28;20252;-68
2022/01/06 02:15:17;;;;;;;11.20;6.30;;;;;;;8.36;79.50;98181.69;5071406;28;20209;-68
2022/01/06 02:17:45;;;;;;;12.03;6.63;;;;;;;8.41;79.39;98183.09;5071306;28;20237;-68
2022/01/06 02:20:16;;;;;;;11.27;6.93;;;;;;;8.35;79.49;98179.28;5071279;28;20682;-59
2022/01/06 02:22:43;;;;;;;10.90;6.37;;;;;;;8.31;79.71;98178.69;5071347;28;20202;-68
2022/01/06 02:25:12;;;;;;;11.53;6.47;;;;;;;8.24;80.16;98177.56;5071267;28;20714;-68
2022/01/06 02:27:39;;;;;;;13.20;6.17;;;;;;;8.13;80.25;98180.13;5071284;28;20194;-59
2022/01/06 02:30:08;;;;;;;12.00;6.70;;;;;;;8.09;80.63;98178.75;5071330;28;20202;-67
2022/01/06 02:32:35;;;;;;;11.23;6.33;;;;;;;8.09;80.75;98183.84;5071145;28;20230;-60
2022/01/06 02:35:05;;;;;;;10.07;6.40;;;;;;;8.18;79.43;98178.03;5070983;28;20203;-59
2022/01/06 02:37:33;;;;;;;10.70;5.97;;;;;;;8.36;78.54;98181.69;5070977;28;20255;-59
2022/01/06 02:40:01;;;;;;;9.87;6.23;;;;;;;8.09;79.13;98173.66;5071238;28;20198;-67
2022/01/06 02:42:29;;;;;;;11.60;6.00;;;;;;;8.15;78.80;98170.63;5071012;28;20234;-59
2022/01/06 02:44:56;;;;;;;11.30;6.30;;;;;;;8.35;78.32;98169.91;5071109;28;20198;-59
2022/01/06 02:47:23;;;;;;;11.57;6.47;;;;;;;8.31;77.81;98163.41;5070875;28;20226;-67
2022/01/06 02:49:50;;;;;;;11.30;5.97;;;;;;;8.25;77.72;98168.97;5071002;28;20684;-59
2022/01/06 02:52:16;;;;;;;9.17;5.63;;;;;;;8.16;78.43;98167.94;5070800;28;20218;-59
2022/01/06 02:54:45;;;;;;;8.97;5.80;;;;;;;8.10;78.16;98170.97;5070899;28;20194;-66
2022/01/06 02:57:11;;;;;;;11.23;6.87;;;;;;;8.19;78.17;98174.53;5070566;28;20719;-59
2022/01/06 02:59:38;;;;;;;10.03;6.10;;;;;;;8.16;78.06;98184.97;5070880;28;20194;-68
2022/01/06 03:02:05;;;;;;;11.67;6.17;;;;;;;8.39;77.06;98185.78;5070594;28;20267;-59
2022/01/06 03:04:32;;;;;;;9.13;5.60;;;;;;;8.45;76.85;98192.13;5070801;28;20648;-68
2022/01/06 03:07:00;;;;;;;10.27;6.23;;;;;;;8.39;76.62;98186.56;5070647;28;20231;-67
2022/01/06 03:09:37;;;;;;;13.30;7.00;;;;;;;8.24;77.43;98190.28;5070574;28;20204;-67
2022/01/06 03:12:07;;;;;;;11.87;6.03;;;;;;;8.27;77.78;98197.69;5070282;28;20222;-59
2022/01/06 03:14:34;;;;;;;10.57;6.43;;;;;;;8.39;76.95;98190.88;5070743;28;20589;-59
2022/01/06 03:17:01;;;;;;;13.37;6.13;;;;;;;8.26;77.13;98188.44;5070349;28;20229;-59
2022/01/06 03:19:28;;;;;;;10.53;6.50;;;;;;;8.31;77.52;98191.41;5070613;28;20672;-67
2022/01/06 03:21:54;;;;;;;9.03;5.90;;;;;;;8.17;77.87;98186.56;5070576;28;20238;-67
2022/01/06 03:24:22;;;;;;;10.37;5.87;;;;;;;8.38;77.29;98192.59;5070547;28;20217;-67
2022/01/06 03:26:49;;;;;;;9.30;5.73;;;;;;;8.33;77.15;98188.78;5070659;28;20218;-66
2022/01/06 03:29:17;;;;;;;13.30;6.70;;;;;;;8.27;77.67;98184.97;5070311;28;20206;-67
2022/01/06 03:31:44;;;;;;;10.87;6.07;;;;;;;8.32;77.55;98195.59;5070371;28;20222;-65
2022/01/06 03:34:11;;;;;;;10.13;6.30;;;;;;;8.64;76.17;98199.97;5070238;28;20202;-59
2022/01/06 03:36:38;;;;;;;10.33;5.47;;;;;;;8.54;75.86;98196.50;5070243;28;20218;-68
2022/01/06 03:39:05;;;;;;;13.73;6.63;;;;;;;8.58;75.85;98200.41;5070292;28;20230;-67
2022/01/06 03:41:33;;;;;;;12.37;6.27;;;;;;;8.70;74.61;98212.22;5070211;28;20233;-68
2022/01/06 03:44:00;;;;;;;11.53;6.20;;;;;;;8.51;75.07;98204.38;5070284;28;20194;-59
2022/01/06 03:46:28;;;;;;;10.37;5.90;;;;;;;8.48;75.44;98214.81;5070527;28;20229;-68
2022/01/06 03:48:55;;;;;;;11.10;6.37;;;;;;;8.58;74.86;98208.06;5070429;28;20243;-68
2022/01/06 03:51:23;;;;;;;10.53;6.60;;;;;;;8.46;75.14;98206.47;5070062;28;20316;-68
2022/01/06 03:53:50;;;;;;;10.53;6.00;;;;;;;8.36;75.66;98207.16;5070436;28;20619;-59
2022/01/06 03:56:17;;;;;;;10.40;5.87;;;;;;;8.55;74.30;98200.66;5070295;28;20268;-68
2022/01/06 03:58:44;;;;;;;13.40;6.33;;;;;;;8.28;75.57;98214.56;5070019;28;20241;-60
2022/01/06 04:01:11;;;;;;;10.43;6.37;;;;;;;8.32;75.71;98204.97;5069970;28;20320;-58
2022/01/06 04:03:40;;;;;;;10.53;5.77;;;;;;;8.42;74.94;98200.00;5070180;28;20198;-59
2022/01/06 04:06:07;;;;;;;12.80;6.17;;;;;;;8.33;74.93;98209.16;5070360;28;20223;-67
2022/01/06 04:08:33;;;;;;;11.37;6.73;;;;;;;8.27;76.08;98217.25;5070111;28;20194;-59
2022/01/06 04:11:00;;;;;;;11.03;6.30;;;;;;;8.36;75.43;98214.81;5070282;28;20226;-59
2022/01/06 04:13:27;;;;;;;12.10;6.07;;;;;;;8.35;75.66;98218.28;5070004;28;20276;-59
2022/01/06 04:15:54;;;;;;;11.33;6.37;;;;;;;8.46;75.21;98212.38;5070108;28;20219;-65
2022/01/06 04:18:20;;;;;;;11.57;6.43;;;;;;;8.38;76.11;98220.63;5070042;28;20277;-67
2022/01/06 04:20:49;;;;;;;11.70;6.73;;;;;;;8.19;77.07;98230.56;5069866;28;20467;-59
2022/01/06 04:23:15;;;;;;;10.83;6.87;;;;;;;8.03;76.90;98219.91;5070151;28;20198;-59
2022/01/06 04:25:42;;;;;;;11.47;6.67;;;;;;;7.99;77.72;98228.72;5073272;28;20221;-68
2022/01/06 04:28:09;;;;;;;12.07;6.37;;;;;;;8.18;76.66;98234.03;5073567;28;20203;-58
2022/01/06 04:30:36;;;;;;;12.10;6.87;;;;;;;8.45;75.93;98235.44;5073749;28;20572;-58
2022/01/06 04:33:03;;;;;;;11.53;6.67;;;;;;;8.46;75.31;98242.13;5073636;28;20584;-67
2022/01/06 04:35:30;;;;;;;11.53;6.47;;;;;;;8.24;76.54;98253.94;5073419;28;20213;-67
2022/01/06 04:37:58;;;;;;;14.60;7.33;;;;;;;8.39;75.76;98241.81;5073242;28;20230;-68
2022/01/06 04:40:25;;;;;;;10.63;6.63;;;;;;;8.29;75.53;98246.78;5073275;28;20207;-67
2022/01/06 04:42:52;;;;;;;11.03;6.70;;;;;;;8.20;76.67;98247.44;5073298;28;20214;-58
2022/01/06 04:45:19;;;;;;;10.83;6.43;;;;;;;8.31;75.98;98246.63;5073513;28;20199;-59
2022/01/06 04:47:46;;;;;;;12.33;7.13;;;;;;;8.38;75.23;98251.19;5073160;28;20221;-58
2022/01/06 04:50:14;;;;;;;12.47;7.17;;;;;;;8.25;75.30;98257.31;5073143;28;20202;-59
2022/01/06 04:52:40;;;;;;;11.17;6.73;;;;;;;8.13;75.69;98256.50;5073118;28;20699;-67
2022/01/06 04:55:10;;;;;;;9.83;6.07;;;;;;;8.33;74.23;98255.78;5071803;28;20289;-60
2022/01/06 04:57:37;;;;;;;10.23;5.97;;;;;;;8.48;73.83;98248.75;5072802;28;20218;-59
2022/01/06 05:00:06;;;;;;;11.87;6.10;;;;;;;8.36;74.43;98258.09;5072869;28;20255;-59
2022/01/06 05:02:32;;;;;;;10.60;5.80;;;;;;;8.45;73.67;98268.53;5072792;28;20223;-59
2022/01/06 05:04:59;;;;;;;10.13;5.77;;;;;;;8.51;72.81;98260.44;5072788;28;20199;-59
2022/01/06 05:07:26;;;;;;;10.87;5.63;;;;;;;8.42;73.28;98272.13;5072948;28;20223;-59
2022/01/06 05:09:53;;;;;;;10.97;5.53;;;;;;;8.43;73.96;98280.59;5072896;28;20692;-59
2022/01/06 05:12:22;;;;;;;11.73;5.80;;;;;;;8.45;73.21;98283.84;5072658;28;20218;-67
2022/01/06 05:14:48;;;;;;;9.60;5.53;;;;;;;8.65;72.71;98272.13;5072710;28;20206;-59
2022/01/06 05:17:15;;;;;;;9.87;5.57;;;;;;;8.68;71.91;98272.69;5072574;28;20230;-67
2022/01/06 05:19:42;;;;;;;13.10;5.80;;;;;;;8.37;73.51;98290.28;5072540;28;20230;-68
2022/01/06 05:22:09;;;;;;;10.47;6.00;;;;;;;8.28;73.87;98280.78;5072521;28;20225;-59
2022/01/06 05:24:38;;;;;;;11.70;6.17;;;;;;;8.05;76.19;98289.34;5072530;28;20199;-68
2022/01/06 05:27:09;;;;;;;10.07;6.03;;;;;;;7.89;76.16;98303.22;5072399;28;20659;-59
2022/01/06 05:29:37;;;;;;;10.10;6.10;;;;;;;8.10;75.02;98288.09;5072444;28;20210;-59
2022/01/06 05:32:04;;;;;;;11.50;6.30;;;;;;;8.19;74.94;98273.84;5072487;28;20606;-62
2022/01/06 05:34:31;;;;;;;15.67;8.13;;;;;;;7.89;76.29;98295.59;5071993;28;20203;-59
2022/01/06 05:36:58;;;;;;;11.13;6.23;;;;;;;7.44;77.98;98305.63;5072295;28;20222;-68
2022/01/06 05:39:25;;;;;;;12.43;5.90;;;;;;;7.69;77.32;98280.97;5072548;28;20234;-67
2022/01/06 05:41:52;;;;;;;11.30;6.40;;;;;;;7.69;77.69;98316.59;5072171;28;20667;-67
2022/01/06 05:44:18;;;;;;;11.30;5.87;;;;;;;7.28;79.20;98269.53;5072327;28;20199;-67
2022/01/06 05:46:47;;;;;;;10.23;5.63;;;;;;;7.53;78.42;98303.34;5072380;28;20229;-66
2022/01/06 05:49:14;;;;;;;11.20;5.83;;;;;;;7.41;78.51;98285.50;5071973;28;20202;-67
2022/01/06 05:51:41;;;;;;;9.13;5.67;;;;;;;7.46;78.59;98293.63;5072415;28;20223;-59
2022/01/06 05:54:08;;;;;;;14.63;7.37;;;;;;;7.46;79.15;98303.78;5072078;28;20599;-59
2022/01/06 05:56:35;;;;;;;9.80;5.70;;;;;;;7.60;78.19;98291.81;5071965;28;20324;-59
2022/01/06 05:59:02;;;;;;;12.17;5.83;;;;;;;7.74;77.67;98313.69;5071722;28;20226;-68
2022/01/06 06:01:29;;;;;;;8.30;5.17;;;;;;;8.05;76.62;98307.16;5072194;28;20234;-59
2022/01/06 06:03:57;;;;;;;11.80;6.67;;;;;;;8.24;75.21;98294.69;5071902;28;20202;-68
2022/01/06 06:06:24;;;;;;;10.10;5.73;;;;;;;8.22;74.78;98311.81;5072002;28;20219;-60
2022/01/06 06:08:51;;;;;;;8.50;5.30;;;;;;;8.10;75.21;98312.72;5071879;28;20199;-67
2022/01/06 06:11:18;;;;;;;8.33;5.20;;;;;;;8.08;75.11;98317.13;5071769;28;20234;-67
2022/01/06 06:13:44;;;;;;;10.60;5.30;;;;;;;8.10;73.95;98317.81;5071575;28;20198;-67
2022/01/06 06:16:11;;;;;;;8.60;5.20;;;;;;;8.07;75.08;98328.25;5071796;28;20214;-59
2022/01/06 06:18:38;;;;;;;9.37;4.90;;;;;;;8.04;73.94;98323.38;5071487;28;20712;-59
2022/01/06 06:21:08;;;;;;;8.27;4.67;;;;;;;8.43;71.33;98318.78;5071624;28;20679;-59
2022/01/06 06:23:35;;;;;;;8.33;4.27;;;;;;;8.57;70.09;98331.28;5071424;28;20202;-59
2022/01/06 06:26:02;;;;;;;8.63;4.60;;;;;;;8.59;70.13;98329.44;5071497;28;20226;-68
2022/01/06 06:28:29;;;;;;;10.13;4.40;;;;;;;8.72;69.71;98335.22;5071275;28;20198;-59
2022/01/06 06:30:56;;;;;;;6.60;4.30;;;;;;;8.79;68.87;98346.56;5071209;28;20241;-68
2022/01/06 06:33:22;;;;;;;9.67;4.33;;;;;;;8.95;68.41;98351.28;5071349;28;20203;-67
2022/01/06 06:35:49;;;;;;;7.97;4.47;;;;;;;8.81;69.63;98349.81;5071263;28;20226;-60
2022/01/06 06:38:17;;;;;;;7.23;4.43;;;;;;;8.80;70.30;98350.72;5071009;28;20210;-68
2022/01/06 06:40:44;;;;;;;9.00;4.33;;;;;;;8.72;70.56;98355.59;5071185;28;20233;-66
2022/01/06 06:43:13;;;;;;;7.53;4.40;;;;;;;8.71;69.66;98348.91;5070873;28;20202;-59
2022/01/06 06:45:39;;;;;;;5.20;3.80;;;;;;;8.94;68.84;98353.97;5071184;28;20250;-68
2022/01/06 06:48:07;;;;;;;8.40;3.90;;;;;;;9.25;67.17;98349.81;5070410;28;20710;-59
2022/01/06 06:50:34;;;;;;;7.10;4.00;;;;;;;9.24;67.45;98351.56;5070968;28;20250;-67
2022/01/06 06:53:02;;;;;;;8.13;4.10;;;;;;;9.34;66.96;98350.84;5070833;28;20213;-59
2022/01/06 06:55:31;;;;;;;8.73;4.10;;;;;;;9.64;65.88;98353.53;5071057;28;20267;-68
2022/01/06 06:57:58;;;;;;;7.07;3.97;;;;;;;9.53;66.38;98356.13;5070933;28;20203;-59
2022/01/06 07:00:25;;;;;;;6.60;3.87;;;;;;;9.55;67.27;98364.47;5070771;28;20234;-68
2022/01/06 07:02:52;;;;;;;6.10;3.83;;;;;;;9.59;67.56;98376.03;5070907;28;20651;-67
2022/01/06 07:05:18;;;;;;;7.57;3.80;;;;;;;9.71;67.55;98384.47;5070609;28;20213;-59
2022/01/06 07:07:46;;;;;;;5.57;3.63;;;;;;;9.83;67.15;98382.66;5070758;28;20336;-60
2022/01/06 07:10:14;;;;;;;8.17;3.63;;;;;;;9.93;66.99;98379.25;5070702;28;20198;-59
2022/01/06 07:12:44;;;;;;;7.00;3.90;;;;;;;10.13;66.22;98380.19;5070804;28;20201;-59
2022/01/06 07:15:12;;;;;;;7.50;3.93;;;;;;;10.38;65.84;98383.31;5070239;28;20710;-68
2022/01/06 07:17:42;;;;;;;6.77;3.90;;;;;;;10.62;65.69;98378.72;5070668;28;20703;-59
2022/01/06 07:20:10;;;;;;;7.03;4.70;;;;;;;10.75;62.99;98378.50;5070674;28;20241;-68
2022/01/06 07:22:37;;;;;;;10.37;5.40;;;;;;;10.86;63.96;98385.28;5070609;28;20229;-68
2022/01/06 07:25:05;;;;;;;7.73;4.10;;;;;;;11.07;63.64;98385.19;5070640;28;20202;-69
2022/01/06 07:27:32;;;;;;;6.10;3.80;;;;;;;11.27;62.71;98386.84;5070471;28;20711;-68
2022/01/06 07:30:00;;;;;;;7.90;4.50;;;;;;;11.51;62.00;98388.22;5070593;28;20206;-68
2022/01/06 07:32:26;;;;;;;6.90;4.50;;;;;;;11.49;60.82;98379.84;5070409;28;20218;-59
2022/01/06 07:34:53;;;;;;;8.17;4.60;;;;;;;11.38;61.22;98380.00;5070423;28;20213;-68
2022/01/06 07:37:20;;;;;;;8.23;5.70;;;;;;;11.45;61.04;98379.31;5070378;28;20664;-59
2022/01/06 07:39:47;;;;;;;7.53;4.60;;;;;;;11.56;59.68;98381.75;5070224;28;20234;-59
2022/01/06 07:42:14;;;;;;;7.97;5.00;;;;;;;11.42;60.58;98384.69;5070288;28;20229;-66
2022/01/06 07:44:42;;;;;;;6.97;3.83;;;;;;;11.50;60.96;98384.84;5070344;28;20203;-68
2022/01/06 07:47:12;;;;;;;7.87;4.40;;;;;;;11.72;59.21;98382.94;5070199;28;20272;-65
2022/01/06 07:49:39;;;;;;;6.90;4.33;;;;;;;11.75;59.71;98386.06;5070193;28;20204;-68
2022/01/06 07:52:06;;;;;;;6.57;3.77;;;;;;;11.68;60.37;98389.31;5070240;28;20230;-67
2022/01/06 07:54:33;;;;;;;8.10;4.33;;;;;;;11.94;59.85;98390.41;5070242;28;20248;-67
2022/01/06 07:56:59;;;;;;;8.23;4.10;;;;;;;12.21;59.25;98389.66;5070146;28;20222;-60
2022/01/06 07:59:26;;;;;;;6.20;3.97;;;;;;;12.43;57.45;98390.31;5073499;28;20238;-59
2022/01/06 08:01:53;;;;;;;5.30;3.63;;;;;;;12.55;56.63;98384.06;5074503;28;20218;-68
2022/01/06 08:04:21;;;;;;;4.47;3.30;;;;;;;12.65;57.48;98389.13;5074002;28;20715;-59
2022/01/06 08:06:48;;;;;;;7.17;4.07;;;;;;;12.73;56.18;98402.06;5074163;28;20233;-59
2022/01/06 08:09:15;;;;;;;7.23;4.03;;;;;;;13.16;54.96;98387.81;5074015;28;20194;-68
2022/01/06 08:11:42;;;;;;;5.90;3.40;;;;;;;13.34;55.28;98393.78;5074290;28;20226;-60
2022/01/06 08:14:08;;;;;;;5.63;3.33;;;;;;;13.36;53.25;98391.91;5073837;28;20718;-59
2022/01/06 08:16:35;;;;;;;9.57;4.10;;;;;;;13.72;53.51;98394.47;5073767;28;20662;-68
2022/01/06 08:19:02;;;;;;;4.80;3.37;;;;;;;13.98;53.05;98386.00;5073785;28;20619;-68
2022/01/06 08:21:30;;;;;;;6.07;3.47;;;;;;;14.02;51.33;98384.72;5073891;28;20242;-60
2022/01/06 08:23:57;;;;;;;5.73;3.77;;;;;;;14.12;51.27;98389.81;5073439;28;20205;-68
2022/01/06 08:26:24;;;;;;;7.30;3.43;;;;;;;14.12;51.77;98398.31;5073897;28;20225;-67
2022/01/06 08:28:51;;;;;;;5.13;3.53;;;;;;;14.19;52.53;98394.16;5073594;28;20604;-59
2022/01/06 08:31:17;;;;;;;5.47;3.90;;;;;;;14.00;53.38;98387.47;5073860;28;20246;-60
2022/01/06 08:33:45;;;;;;;5.00;3.40;;;;;;;14.22;51.86;98387.94;5073609;28;20206;-68
2022/01/06 08:36:12;;;;;;;6.10;3.83;;;;;;;14.47;51.24;98389.69;5073455;28;20228;-68
2022/01/06 08:38:40;;;;;;;6.33;3.53;;;;;;;14.74;49.66;98389.69;5073410;28;20202;-68
2022/01/06 08:41:08;;;;;;;6.53;4.10;;;;;;;14.99;49.96;98393.16;5073115;28;20315;-60
2022/01/06 08:43:35;;;;;;;6.70;3.60;;;;;;;14.89;50.10;98390.69;5073398;28;20238;-68
2022/01/06 08:46:02;;;;;;;7.07;3.53;;;;;;;14.69;50.90;98382.44;5073329;28;20227;-59
2022/01/06 08:48:31;;;;;;;7.17;3.60;;;;;;;14.78;50.81;98381.50;5073010;28;20583;-59
2022/01/06 08:50:58;;;;;;;6.33;3.43;;;;;;;14.97;49.99;98375.28;5072805;28;20218;-69
2022/01/06 08:53:25;;;;;;;5.90;3.40;;;;;;;15.22;50.21;98383.09;5073176;28;20195;-59
2022/01/06 08:55:54;;;;;;;5.43;3.43;;;;;;;15.52;49.65;98397.94;5073316;28;20230;-69
2022/01/06 08:58:21;;;;;;;7.43;3.47;;;;;;;15.65;48.28;98394.09;5072897;28;20670;-60
2022/01/06 09:00:49;;;;;;;6.57;3.40;;;;;;;15.70;48.20;98391.88;5073269;28;20248;-69
2022/01/06 09:03:17;;;;;;;5.97;3.50;;;;;;;15.63;49.29;98389.91;5073232;28;20214;-60
2022/01/06 09:05:43;;;;;;;6.60;4.00;;;;;;;15.62;49.18;98390.09;5072996;28;20225;-60
2022/01/06 09:08:10;;;;;;;9.07;3.80;;;;;;;15.58;50.08;98389.56;5073314;28;20206;-60
2022/01/06 09:10:37;;;;;;;7.37;3.60;;;;;;;15.74;49.38;98396.56;5072003;28;20708;-69
2022/01/06 09:13:07;;;;;;;6.67;3.93;;;;;;;15.94;50.20;98394.47;5072783;28;20210;-69
2022/01/06 09:15:34;;;;;;;9.30;3.80;;;;;;;16.02;49.61;98397.03;5072773;28;20731;-69
2022/01/06 09:18:01;;;;;;;6.03;4.20;;;;;;;16.34;50.47;98390.22;5071281;28;20203;-60
2022/01/06 09:20:29;;;;;;;6.27;4.27;;;;;;;16.14;49.67;98394.91;5072549;28;20230;-60
2022/01/06 09:22:56;;;;;;;8.13;4.77;;;;;;;16.39;50.25;98392.31;5072601;28;20202;-60
2022/01/06 09:25:22;;;;;;;8.67;4.67;;;;;;;16.23;50.24;98387.97;5072522;28;20203;-69
2022/01/06 09:27:49;;;;;;;7.43;4.47;;;;;;;16.74;49.16;98389.28;5072494;28;20194;-69
2022/01/06 09:30:19;;;;;;;8.07;4.40;;;;;;;16.91;48.39;98390.06;5072364;28;20247;-69
2022/01/06 09:32:46;;;;;;;6.40;4.53;;;;;;;17.41;48.67;98388.81;5071904;28;20222;-60
2022/01/06 09:35:13;;;;;;;7.43;4.60;;;;;;;17.41;48.68;98391.38;5063472;28;20202;-59
2022/01/06 09:37:40;;;;;;;7.17;4.73;;;;;;;17.75;49.07;98384.22;5060475;28;20197;-60
2022/01/06 09:40:09;;;;;;;7.50;4.60;;;;;;;17.88;46.70;98390.44;5052312;28;20231;-70
2022/01/06 09:42:37;;;;;;;8.17;4.63;;;;;;;18.09;45.91;98387.19;5052325;28;20281;-60
2022/01/06 09:45:04;;;;;;;8.60;4.90;;;;;;;18.40;47.68;98390.59;5052207;28;20209;-60
2022/01/06 09:47:33;;;;;;;6.70;4.47;;;;;;;18.58;45.66;98387.66;5051981;28;20232;-69
2022/01/06 09:50:00;;;;;;;6.57;4.50;;;;;;;18.88;46.42;98385.84;5052017;28;20202;-69
2022/01/06 09:52:27;;;;;;;5.67;3.70;;;;;;;19.18;45.16;98392.59;5051934;28;20224;-69
2022/01/06 09:54:54;;;;;;;6.97;3.80;;;;;;;19.70;43.33;98379.56;5052411;28;20584;-60
2022/01/06 09:57:20;;;;;;;5.90;3.90;;;;;;;19.99;43.76;98389.78;5051729;28;20223;-70
2022/01/06 09:59:48;;;;;;;5.30;3.40;;;;;;;19.95;41.51;98387.75;5051747;28;20916;-60
2022/01/06 10:02:17;;;;;;;5.00;3.50;;;;;;;20.50;42.08;98397.28;5051572;28;20222;-60
2022/01/06 10:04:47;;;;;;;10.27;3.77;;;;;;;20.95;42.04;98395.16;5051828;28;20241;-62
2022/01/06 10:07:16;;;;;;;5.40;3.80;;;;;;;20.98;40.75;98389.56;5051526;28;20653;-65
2022/01/06 10:09:43;;;;;;;5.40;3.77;;;;;;;20.98;42.60;98396.56;5051836;28;20204;-69
2022/01/06 10:12:13;;;;;;;5.13;3.40;;;;;;;20.49;39.84;98390.50;5051355;28;20231;-60
2022/01/06 10:14:44;;;;;;;4.93;3.40;;;;;;;20.71;40.19;98391.25;5051671;28;20296;-60
2022/01/06 10:17:13;;;;;;;5.53;3.50;;;;;;;20.94;39.69;98393.56;5051500;28;20327;-61
2022/01/06 10:19:41;;;;;;;5.23;3.47;;;;;;;20.93;39.94;98373.75;5051234;28;20239;-69
2022/01/06 10:22:16;;;;;;;9.03;3.40;;;;;;;20.61;41.66;98377.00;5050457;28;20217;-69
2022/01/06 10:24:44;;;;;;;6.23;3.53;;;;;;;20.83;39.28;98367.28;5051401;28;20200;-65
2022/01/06 10:27:13;;;;;;;4.73;3.30;;;;;;;20.83;39.20;98381.13;5051135;28;20225;-69
2022/01/06 10:29:43;;;;;;;6.30;3.30;;;;;;;20.93;39.97;98381.53;5051208;28;20209;-60
2022/01/06 10:32:12;;;;;;;5.67;3.47;;;;;;;20.76;39.50;98377.66;5051226;28;20225;-71
2022/01/06 10:34:42;;;;;;;8.10;3.67;;;;;;;20.52;37.98;98369.38;5051325;28;20216;-68
2022/01/06 10:37:24;;;;;;;6.00;3.20;;;;;;;20.78;39.18;98373.09;5050848;28;20713;-70
2022/01/06 10:39:53;;;;;;;3.83;3.00;;;;;;;21.03;38.50;98376.78;5051289;28;20237;-61
2022/01/06 10:42:23;;;;;;;4.80;3.23;;;;;;;21.56;38.90;98376.13;5050892;28;20222;-62
2022/01/06 10:44:53;;;;;;;4.40;3.10;;;;;;;21.51;38.34;98368.09;5050508;28;20232;-61
2022/01/06 10:47:31;;;;;;;4.63;3.23;;;;;;;21.56;36.81;98375.31;5049022;28;20616;-61
2022/01/06 10:50:13;;;;;;;8.87;3.33;;;;;;;21.41;38.60;98371.09;5050697;28;20259;-70
2022/01/06 10:52:44;;;;;;;4.37;3.10;;;;;;;21.59;38.85;98380.13;5051089;28;20198;-69
2022/01/06 10:55:14;;;;;;;4.40;3.00;;;;;;;21.51;38.20;98382.91;5051133;28;20214;-69
2022/01/06 10:57:51;;;;;;;6.30;3.13;;;;;;;21.72;38.19;98379.31;5050065;28;20297;-61
2022/01/06 11:00:19;;;;;;;4.03;2.87;;;;;;;21.91;39.16;98368.91;5049928;28;20230;-61
2022/01/06 11:02:46;;;;;;;6.07;4.10;;;;;;;22.09;38.26;98372.69;5050596;28;20218;-69
2022/01/06 11:05:13;;;;;;;5.20;4.00;;;;;;;22.06;38.40;98375.72;5050149;28;20218;-60
2022/01/06 11:07:41;;;;;;;5.90;3.53;;;;;;;22.26;37.44;98376.50;5048625;28;20731;-70
2022/01/06 11:10:15;;;;;;;4.40;3.50;;;;;;;22.29;37.02;98370.91;5050447;28;20203;-69
2022/01/06 11:12:42;;;;;;;5.00;3.20;;;;;;;21.88;38.75;98369.31;5050589;28;20199;-60
2022/01/06 11:15:10;;;;;;;7.77;4.43;;;;;;;21.20;38.39;98376.41;5050550;28;20207;-69
2022/01/06 11:17:37;;;;;;;5.93;4.17;;;;;;;21.33;38.73;98376.44;5050402;28;20257;-60
2022/01/06 11:20:05;;;;;;;5.77;4.23;;;;;;;21.32;39.60;98367.06;5050353;28;20240;-60
2022/01/06 11:22:32;;;;;;;4.17;2.87;;;;;;;21.39;39.00;98375.69;5050434;28;20225;-61
2022/01/06 11:25:02;;;;;;;3.73;2.77;;;;;;;21.55;38.58;98378.91;5050234;28;20210;-60
2022/01/06 11:27:34;;;;;;;12.60;3.17;;;;;;;21.65;37.83;98376.72;5050429;28;20269;-60
2022/01/06 11:30:09;;;;;;;4.87;2.90;;;;;;;21.61;37.96;98368.53;5050427;28;20601;-69
2022/01/06 11:32:36;;;;;;;4.40;3.00;;;;;;;21.16;40.16;98362.22;5049955;28;20225;-69
2022/01/06 11:35:04;;;;;;;5.97;3.20;;;;;;;21.33;38.36;98371.25;5050440;28;20558;-60
2022/01/06 11:37:40;;;;;;;4.13;3.00;;;;;;;21.11;38.84;98372.41;5050193;28;20227;-61
2022/01/06 11:40:10;;;;;;;9.60;5.20;;;;;;;20.79;38.67;98385.06;5050275;28;20234;-69
2022/01/06 11:42:36;;;;;;;6.87;4.90;;;;;;;20.70;38.87;98381.03;5050008;28;20711;-69